createdAt,value
2017-05-25T00:02:09.601Z,10.50
2017-05-25T00:04:36.582Z,10.60
2017-05-25T00:07:03.607Z,10.90
2017-05-25T00:09:30.829Z,10.40
2017-05-25T00:11:57.728Z,10.40
2017-05-25T00:14:24.629Z,10.70
2017-05-25T00:16:51.891Z,10.50
2017-05-25T00:19:18.832Z,10.90
2017-05-25T00:21:45.729Z,10.90
2017-05-25T00:24:13.008Z,10.90
2017-05-25T00:26:39.940Z,10.90
2017-05-25T00:29:06.848Z,10.50
2017-05-25T00:31:34.053Z,10.50
2017-05-25T00:34:01.017Z,10.60
2017-05-25T00:36:27.933Z,10.50
2017-05-25T00:38:55.203Z,10.70
2017-05-25T00:41:22.097Z,10.90
2017-05-25T00:43:49.005Z,11.10
2017-05-25T00:46:16.238Z,11.00
2017-05-25T00:48:43.153Z,10.90
2017-05-25T00:51:10.081Z,10.80
2017-05-25T00:53:37.353Z,10.80
2017-05-25T00:56:04.253Z,10.90
2017-05-25T00:58:31.133Z,10.70
2017-05-25T01:00:58.425Z,10.60
2017-05-25T01:03:25.389Z,10.80
2017-05-25T01:05:52.275Z,10.90
2017-05-25T01:08:19.694Z,10.90
2017-05-25T01:10:46.629Z,10.80
2017-05-25T01:13:13.525Z,10.70
2017-05-25T01:15:40.948Z,10.70
2017-05-25T01:18:08.200Z,10.60
2017-05-25T01:20:35.428Z,10.70
2017-05-25T01:23:02.696Z,10.80
2017-05-25T01:25:29.600Z,10.70
2017-05-25T01:27:56.504Z,10.90
2017-05-25T01:30:23.837Z,10.70
2017-05-25T01:32:50.764Z,10.70
2017-05-25T01:35:17.672Z,10.90
2017-05-25T01:37:44.973Z,10.70
2017-05-25T01:40:11.884Z,10.60
2017-05-25T01:42:38.817Z,10.60
2017-05-25T01:45:06.061Z,10.20
2017-05-25T01:47:32.980Z,10.50
2017-05-25T01:49:59.877Z,10.70
2017-05-25T01:52:27.173Z,10.80
2017-05-25T01:54:54.057Z,10.50
2017-05-25T01:57:20.972Z,10.40
2017-05-25T01:59:48.197Z,10.60
2017-05-25T02:02:15.100Z,10.70
2017-05-25T02:04:41.998Z,10.70
2017-05-25T02:07:09.742Z,10.50
2017-05-25T02:09:36.668Z,10.60
2017-05-25T02:12:03.627Z,10.40
2017-05-25T02:14:30.921Z,10.40
2017-05-25T02:16:58.355Z,10.30
2017-05-25T02:19:25.289Z,10.40
2017-05-25T02:21:52.552Z,10.50
2017-05-25T02:24:19.509Z,10.30
2017-05-25T02:26:46.915Z,10.50
2017-05-25T02:29:14.223Z,10.50
2017-05-25T02:31:41.165Z,10.60
2017-05-25T02:34:08.073Z,10.40
2017-05-25T02:36:35.349Z,10.40
2017-05-25T02:39:02.297Z,10.40
2017-05-25T02:41:29.205Z,10.40
2017-05-25T02:43:56.492Z,10.20
2017-05-25T02:46:23.396Z,10.50
2017-05-25T02:48:50.277Z,10.50
2017-05-25T02:51:17.541Z,10.40
2017-05-25T02:53:44.467Z,10.10
2017-05-25T02:56:11.402Z,10.20
2017-05-25T02:58:38.706Z,10.20
2017-05-25T03:01:05.600Z,10.20
2017-05-25T03:03:32.515Z,9.80
2017-05-25T03:05:59.921Z,9.70
2017-05-25T03:08:26.825Z,9.90
2017-05-25T03:10:53.729Z,10.00
2017-05-25T03:13:21.096Z,10.00
2017-05-25T03:15:48.033Z,10.20
2017-05-25T03:18:14.951Z,10.20
2017-05-25T03:20:42.233Z,10.10
2017-05-25T03:23:09.187Z,10.00
2017-05-25T03:25:36.105Z,9.90
2017-05-25T03:28:03.410Z,9.90
2017-05-25T03:30:30.339Z,10.10
2017-05-25T03:32:57.256Z,10.30
2017-05-25T03:35:24.488Z,10.10
2017-05-25T03:37:51.423Z,9.80
2017-05-25T03:40:18.336Z,9.90
2017-05-25T03:42:45.553Z,10.10
2017-05-25T03:45:12.502Z,9.90
2017-05-25T03:47:39.433Z,9.90
2017-05-25T03:50:06.690Z,10.10
2017-05-25T03:52:33.589Z,10.00
2017-05-25T03:55:00.491Z,10.30
2017-05-25T03:57:27.792Z,9.90
2017-05-25T03:59:54.737Z,10.10
2017-05-25T04:02:21.666Z,10.10
2017-05-25T04:04:48.979Z,10.10
2017-05-25T04:07:15.879Z,10.00
2017-05-25T04:09:42.836Z,10.20
2017-05-25T04:12:10.204Z,10.60
2017-05-25T04:14:37.136Z,10.40
2017-05-25T04:17:04.060Z,10.70
2017-05-25T04:19:31.305Z,10.30
2017-05-25T04:21:58.220Z,10.40
2017-05-25T04:24:25.150Z,10.40
2017-05-25T04:26:52.439Z,10.40
2017-05-25T04:29:19.377Z,10.40
2017-05-25T04:31:46.332Z,10.20
2017-05-25T04:34:13.597Z,10.30
2017-05-25T04:36:40.536Z,10.90
2017-05-25T04:39:07.477Z,10.80
2017-05-25T04:41:35.453Z,10.70
2017-05-25T04:44:02.380Z,10.70
2017-05-25T04:46:29.831Z,10.90
2017-05-25T04:48:57.117Z,10.60
2017-05-25T04:51:24.052Z,10.60
2017-05-25T04:53:50.984Z,11.00
2017-05-25T04:56:18.254Z,10.70
2017-05-25T04:58:45.167Z,10.40
2017-05-25T05:01:12.142Z,10.70
2017-05-25T05:03:39.489Z,11.00
2017-05-25T05:06:06.411Z,10.80
2017-05-25T05:08:33.340Z,10.80
2017-05-25T05:11:00.728Z,10.80
2017-05-25T05:13:27.658Z,10.80
2017-05-25T05:15:54.572Z,11.00
2017-05-25T05:18:21.769Z,11.10
2017-05-25T05:20:48.679Z,11.00
2017-05-25T05:23:15.607Z,11.30
2017-05-25T05:25:42.902Z,11.10
2017-05-25T05:28:09.847Z,11.00
2017-05-25T05:30:36.768Z,11.30
2017-05-25T05:33:04.020Z,11.40
2017-05-25T05:35:30.942Z,11.60
2017-05-25T05:37:57.857Z,11.60
2017-05-25T05:40:25.264Z,11.60
2017-05-25T05:42:52.210Z,11.60
2017-05-25T05:45:19.119Z,11.70
2017-05-25T05:47:46.503Z,11.90
2017-05-25T05:50:13.438Z,11.90
2017-05-25T05:52:40.391Z,12.00
2017-05-25T05:55:07.648Z,11.90
2017-05-25T05:57:34.680Z,11.70
2017-05-25T06:00:01.624Z,12.00
2017-05-25T06:02:28.978Z,11.90
2017-05-25T06:04:55.933Z,12.00
2017-05-25T06:07:22.868Z,12.10
2017-05-25T06:09:50.106Z,12.00
2017-05-25T06:12:17.079Z,11.90
2017-05-25T06:14:43.987Z,12.20
2017-05-25T06:17:11.385Z,12.20
2017-05-25T06:19:38.393Z,12.10
2017-05-25T06:22:05.313Z,12.30
2017-05-25T06:24:32.591Z,12.30
2017-05-25T06:26:59.521Z,12.30
2017-05-25T06:29:26.468Z,12.30
2017-05-25T06:31:53.722Z,12.20
2017-05-25T06:34:20.628Z,12.10
2017-05-25T06:36:47.549Z,11.90
2017-05-25T06:39:14.846Z,12.10
2017-05-25T06:41:41.803Z,12.10
2017-05-25T06:44:08.697Z,12.10
2017-05-25T06:46:36.076Z,12.20
2017-05-25T06:49:03.047Z,12.30
2017-05-25T06:51:29.947Z,12.60
2017-05-25T06:53:57.184Z,12.70
2017-05-25T06:56:24.176Z,12.60
2017-05-25T06:58:51.115Z,12.90
2017-05-25T07:01:18.363Z,12.90
2017-05-25T07:03:45.257Z,12.80
2017-05-25T07:06:12.172Z,12.80
2017-05-25T07:08:39.399Z,12.90
2017-05-25T07:11:06.340Z,13.00
2017-05-25T07:13:33.297Z,13.10
2017-05-25T07:16:00.526Z,13.30
2017-05-25T07:18:27.477Z,13.40
2017-05-25T07:20:54.425Z,13.10
2017-05-25T07:23:21.660Z,13.20
2017-05-25T07:25:48.596Z,13.10
2017-05-25T07:28:15.546Z,13.40
2017-05-25T07:30:42.836Z,13.50
2017-05-25T07:33:09.761Z,13.30
2017-05-25T07:35:36.672Z,13.30
2017-05-25T07:38:04.251Z,13.30
2017-05-25T07:40:31.203Z,13.50
2017-05-25T07:42:58.101Z,13.80
2017-05-25T07:45:25.389Z,13.60
2017-05-25T07:47:52.428Z,13.30
2017-05-25T07:50:19.336Z,13.30
2017-05-25T07:52:46.550Z,13.50
2017-05-25T07:55:13.488Z,13.60
2017-05-25T07:57:40.418Z,13.80
2017-05-25T08:00:07.740Z,13.80
2017-05-25T08:02:34.698Z,13.70
2017-05-25T08:05:01.616Z,13.70
2017-05-25T08:07:28.876Z,14.10
2017-05-25T08:09:55.798Z,14.20
2017-05-25T08:12:22.724Z,14.30
2017-05-25T08:14:50.039Z,14.00
2017-05-25T08:17:16.956Z,14.10
2017-05-25T08:19:43.894Z,14.30
2017-05-25T08:22:11.232Z,14.10
2017-05-25T08:24:38.778Z,14.20
2017-05-25T08:27:05.715Z,14.10
2017-05-25T08:29:33.032Z,14.30
2017-05-25T08:31:59.989Z,14.10
2017-05-25T08:34:26.913Z,13.90
2017-05-25T08:36:54.232Z,14.30
2017-05-25T08:39:21.149Z,14.60
2017-05-25T08:41:48.055Z,14.40
2017-05-25T08:44:15.388Z,14.50
2017-05-25T08:46:42.348Z,14.60
2017-05-25T08:49:09.279Z,15.00
2017-05-25T08:51:36.622Z,14.80
2017-05-25T08:54:03.521Z,14.70
2017-05-25T08:56:30.469Z,14.30
2017-05-25T08:58:57.843Z,14.70
2017-05-25T09:01:24.767Z,14.80
2017-05-25T09:03:51.694Z,14.80
2017-05-25T09:06:19.200Z,15.10
2017-05-25T09:08:46.126Z,15.20
2017-05-25T09:11:13.057Z,15.50
2017-05-25T09:13:40.373Z,15.30
2017-05-25T09:16:07.274Z,15.20
2017-05-25T09:18:34.228Z,15.30
2017-05-25T09:21:01.575Z,15.60
2017-05-25T09:23:28.500Z,15.60
2017-05-25T09:25:55.444Z,15.70
2017-05-25T09:28:23.200Z,15.60
2017-05-25T09:30:50.153Z,15.60
2017-05-25T09:33:17.146Z,15.80
2017-05-25T09:35:44.441Z,15.70
2017-05-25T09:38:11.352Z,15.60
2017-05-25T09:40:38.302Z,15.70
2017-05-25T09:43:05.585Z,15.80
2017-05-25T09:45:32.530Z,15.60
2017-05-25T09:47:59.486Z,15.90
2017-05-25T09:50:26.841Z,16.00
2017-05-25T09:52:53.794Z,15.90
2017-05-25T09:55:20.753Z,16.00
2017-05-25T09:57:48.051Z,16.20
2017-05-25T10:00:15.007Z,16.40
2017-05-25T10:02:41.937Z,16.80
2017-05-25T10:05:09.251Z,16.60
2017-05-25T10:07:36.196Z,16.30
2017-05-25T10:10:03.124Z,16.30
2017-05-25T10:12:30.423Z,16.50
2017-05-25T10:14:57.337Z,16.60
2017-05-25T10:17:24.397Z,16.80
2017-05-25T10:19:51.794Z,16.80
2017-05-25T10:22:18.725Z,16.80
2017-05-25T10:24:45.683Z,16.70
2017-05-25T10:27:13.007Z,16.70
2017-05-25T10:29:39.950Z,16.50
2017-05-25T10:32:06.857Z,16.50
2017-05-25T10:34:34.140Z,16.40
2017-05-25T10:37:01.109Z,16.40
2017-05-25T10:39:28.029Z,16.60
2017-05-25T10:41:55.382Z,17.10
2017-05-25T10:44:22.317Z,17.40
2017-05-25T10:46:49.249Z,17.40
2017-05-25T10:49:16.536Z,17.50
2017-05-25T10:51:43.484Z,17.60
2017-05-25T10:54:10.406Z,17.70
2017-05-25T10:56:37.716Z,17.70
2017-05-25T10:59:04.613Z,17.70
2017-05-25T11:01:31.529Z,17.50
2017-05-25T11:03:58.894Z,17.40
2017-05-25T11:06:25.837Z,17.50
2017-05-25T11:08:52.796Z,17.40
2017-05-25T11:11:20.143Z,17.90
2017-05-25T11:13:47.062Z,17.80
2017-05-25T11:16:13.979Z,17.50
2017-05-25T11:18:41.802Z,17.40
2017-05-25T11:21:08.727Z,17.70
2017-05-25T11:23:35.638Z,17.90
2017-05-25T11:26:03.029Z,18.10
2017-05-25T11:28:29.952Z,18.20
2017-05-25T11:30:56.857Z,18.50
2017-05-25T11:33:24.139Z,18.40
2017-05-25T11:35:51.094Z,18.50
2017-05-25T11:38:18.003Z,18.40
2017-05-25T11:40:45.321Z,18.40
2017-05-25T11:43:12.280Z,18.50
2017-05-25T11:45:39.176Z,18.50
2017-05-25T11:48:06.515Z,18.40
2017-05-25T11:50:34.013Z,18.30
2017-05-25T11:53:01.478Z,18.20
2017-05-25T11:55:28.803Z,18.60
2017-05-25T11:57:55.805Z,18.60
2017-05-25T12:00:22.775Z,18.50
2017-05-25T12:02:50.641Z,18.50
2017-05-25T12:05:17.616Z,18.80
2017-05-25T12:07:44.551Z,19.00
2017-05-25T12:10:11.883Z,18.70
2017-05-25T12:12:38.813Z,18.80
2017-05-25T12:15:05.728Z,18.90
2017-05-25T12:17:33.023Z,19.20
2017-05-25T12:20:00.056Z,19.00
2017-05-25T12:22:26.996Z,18.90
2017-05-25T12:24:54.353Z,19.00
2017-05-25T12:27:21.290Z,19.40
2017-05-25T12:29:48.218Z,19.10
2017-05-25T12:32:15.489Z,19.20
2017-05-25T12:34:42.404Z,19.20
2017-05-25T12:37:09.361Z,19.20
2017-05-25T12:39:36.722Z,19.40
2017-05-25T12:42:03.664Z,19.40
2017-05-25T12:44:30.566Z,19.20
2017-05-25T12:46:57.949Z,19.40
2017-05-25T12:49:24.907Z,19.40
2017-05-25T12:51:51.836Z,19.40
2017-05-25T12:54:19.193Z,19.20
2017-05-25T12:56:46.151Z,19.50
2017-05-25T12:59:13.056Z,19.60
2017-05-25T13:01:40.340Z,19.40
2017-05-25T13:04:07.514Z,19.70
2017-05-25T13:06:34.438Z,19.70
2017-05-25T13:09:01.767Z,19.80
2017-05-25T13:11:28.714Z,20.00
2017-05-25T13:13:55.655Z,20.20
2017-05-25T13:16:22.935Z,20.80
2017-05-25T13:18:49.845Z,21.00
2017-05-25T13:21:16.825Z,21.10
2017-05-25T13:23:44.125Z,20.30
2017-05-25T13:26:11.047Z,20.30
2017-05-25T13:28:38.010Z,20.50
2017-05-25T13:31:05.328Z,20.90
2017-05-25T13:33:32.266Z,21.30
2017-05-25T13:35:59.227Z,21.50
2017-05-25T13:38:26.522Z,21.10
2017-05-25T13:40:53.442Z,21.70
2017-05-25T13:43:20.376Z,21.90
2017-05-25T13:45:47.866Z,21.70
2017-05-25T13:48:14.806Z,21.70
2017-05-25T13:50:41.846Z,21.80
2017-05-25T13:53:09.184Z,21.60
2017-05-25T13:55:36.140Z,21.40
2017-05-25T13:58:03.082Z,21.50
2017-05-25T14:00:31.076Z,21.50
2017-05-25T14:02:58.025Z,21.50
2017-05-25T14:05:25.084Z,21.30
2017-05-25T14:07:52.408Z,21.40
2017-05-25T14:10:19.340Z,21.90
2017-05-25T14:12:46.278Z,22.50
2017-05-25T14:15:13.640Z,23.10
2017-05-25T14:17:40.573Z,23.50
2017-05-25T14:20:07.536Z,23.40
2017-05-25T14:22:34.853Z,22.50
2017-05-25T14:25:01.788Z,22.40
2017-05-25T14:27:28.712Z,22.80
2017-05-25T14:29:55.964Z,23.60
2017-05-25T14:32:22.912Z,23.30
2017-05-25T14:34:49.836Z,23.20
2017-05-25T14:37:17.126Z,23.30
2017-05-25T14:39:44.042Z,23.70
2017-05-25T14:42:10.961Z,23.80
2017-05-25T14:44:38.257Z,23.90
2017-05-25T14:47:05.176Z,23.90
2017-05-25T14:49:32.118Z,24.10
2017-05-25T14:51:59.393Z,24.20
2017-05-25T14:54:26.317Z,24.10
2017-05-25T14:56:53.244Z,24.50
2017-05-25T14:59:20.548Z,24.70
2017-05-25T15:01:47.482Z,24.70
2017-05-25T15:04:14.429Z,25.60
2017-05-25T15:06:41.794Z,26.00
2017-05-25T15:09:08.724Z,27.40
2017-05-25T15:11:35.649Z,27.70
2017-05-25T15:14:03.007Z,28.80
2017-05-25T15:16:29.935Z,29.50
2017-05-25T15:18:56.868Z,29.30
2017-05-25T15:21:24.240Z,29.40
2017-05-25T15:23:51.152Z,30.10
2017-05-25T15:26:18.084Z,30.30
2017-05-25T15:28:45.491Z,28.60
2017-05-25T15:31:12.432Z,29.50
2017-05-25T15:33:39.353Z,29.90
2017-05-25T15:36:06.698Z,30.90
2017-05-25T15:38:33.627Z,31.80
2017-05-25T15:41:00.559Z,31.60
2017-05-25T15:43:27.867Z,30.80
2017-05-25T15:45:54.816Z,30.80
2017-05-25T15:48:21.766Z,30.20
2017-05-25T15:50:49.730Z,28.60
2017-05-25T15:53:16.756Z,29.80
2017-05-25T15:55:43.695Z,30.70
2017-05-25T15:58:11.001Z,30.50
2017-05-25T16:00:37.927Z,30.80
2017-05-25T16:03:04.889Z,31.50
2017-05-25T16:05:32.168Z,32.00
2017-05-25T16:07:59.089Z,31.90
2017-05-25T16:10:26.037Z,32.50
2017-05-25T16:12:53.320Z,32.30
2017-05-25T16:15:20.237Z,31.00
2017-05-25T16:17:47.153Z,30.60
2017-05-25T16:20:14.655Z,30.50
2017-05-25T16:22:41.605Z,30.40
2017-05-25T16:25:08.518Z,32.00
2017-05-25T16:27:35.893Z,32.40
2017-05-25T16:30:02.804Z,32.20
2017-05-25T16:32:29.920Z,33.70
2017-05-25T16:34:57.243Z,33.80
2017-05-25T16:37:24.189Z,31.50
2017-05-25T16:39:51.136Z,30.10
2017-05-25T16:42:18.473Z,29.50
2017-05-25T16:44:45.385Z,28.60
2017-05-25T16:47:12.323Z,28.30
2017-05-25T16:49:39.621Z,28.20
2017-05-25T16:52:06.556Z,29.30
2017-05-25T16:54:33.491Z,30.50
2017-05-25T16:57:01.264Z,30.80
2017-05-25T16:59:28.195Z,30.00
2017-05-25T17:01:55.124Z,30.30
2017-05-25T17:04:22.511Z,30.00
2017-05-25T17:06:50.100Z,30.10
2017-05-25T17:09:17.028Z,30.20
2017-05-25T17:11:44.337Z,30.50
2017-05-25T17:14:11.259Z,29.80
2017-05-25T17:16:38.182Z,31.20
2017-05-25T17:19:05.499Z,31.50
2017-05-25T17:21:32.428Z,31.50
2017-05-25T17:23:59.360Z,32.00
2017-05-25T17:26:26.708Z,32.10
2017-05-25T17:28:53.636Z,31.40
2017-05-25T17:31:20.573Z,31.20
2017-05-25T17:33:47.853Z,30.90
2017-05-25T17:36:14.789Z,30.20
2017-05-25T17:38:42.340Z,30.30
2017-05-25T17:41:09.740Z,30.70
2017-05-25T17:43:36.838Z,30.60
2017-05-25T17:46:04.157Z,30.90
2017-05-25T17:48:31.609Z,31.10
2017-05-25T17:50:58.533Z,30.70
2017-05-25T17:53:25.446Z,31.10
2017-05-25T17:55:53.303Z,31.30
2017-05-25T17:58:20.364Z,31.80
2017-05-25T18:00:47.313Z,31.30
2017-05-25T18:03:14.668Z,31.30
2017-05-25T18:05:41.597Z,30.30
2017-05-25T18:08:08.542Z,28.90
2017-05-25T18:10:35.837Z,27.50
2017-05-25T18:13:02.774Z,27.20
2017-05-25T18:15:30.593Z,27.90
2017-05-25T18:17:57.939Z,27.80
2017-05-25T18:20:24.861Z,27.50
2017-05-25T18:22:51.794Z,26.70
2017-05-25T18:25:19.207Z,26.00
2017-05-25T18:27:46.203Z,25.40
2017-05-25T18:30:13.166Z,24.80
2017-05-25T18:32:40.474Z,24.60
2017-05-25T18:35:07.416Z,25.20
2017-05-25T18:37:34.355Z,25.80
2017-05-25T18:40:01.654Z,26.00
2017-05-25T18:42:28.587Z,26.20
2017-05-25T18:44:55.544Z,26.40
2017-05-25T18:47:23.386Z,26.10
2017-05-25T18:49:50.377Z,26.20
2017-05-25T18:52:17.294Z,25.60
2017-05-25T18:54:44.659Z,25.40
2017-05-25T18:57:11.634Z,24.80
2017-05-25T18:59:38.547Z,24.60
2017-05-25T19:02:05.877Z,24.30
2017-05-25T19:04:32.805Z,24.00
2017-05-25T19:06:59.745Z,23.70
2017-05-25T19:09:27.025Z,23.50
2017-05-25T19:11:53.972Z,23.20
2017-05-25T19:14:20.907Z,22.80
2017-05-25T19:16:48.249Z,22.80
2017-05-25T19:19:15.203Z,23.00
2017-05-25T19:21:42.157Z,22.40
2017-05-25T19:24:09.269Z,21.90
2017-05-25T19:26:36.226Z,21.70
2017-05-25T19:29:03.152Z,21.70
2017-05-25T19:31:30.277Z,21.70
2017-05-25T19:33:57.198Z,21.30
2017-05-25T19:36:24.123Z,21.00
2017-05-25T19:38:51.220Z,21.20
2017-05-25T19:41:18.172Z,21.20
2017-05-25T19:43:45.097Z,20.70
2017-05-25T19:46:12.399Z,20.90
2017-05-25T19:48:39.431Z,21.00
2017-05-25T19:51:06.385Z,20.60
2017-05-25T19:53:33.528Z,21.10
2017-05-25T19:56:00.442Z,20.50
2017-05-25T19:58:27.405Z,20.50
2017-05-25T20:00:54.508Z,20.50
2017-05-25T20:03:21.435Z,20.70
2017-05-25T20:05:48.351Z,20.40
2017-05-25T20:08:15.692Z,19.80
2017-05-25T20:10:42.612Z,18.90
2017-05-25T20:13:09.541Z,18.30
2017-05-25T20:15:36.817Z,18.40
2017-05-25T20:18:03.728Z,18.40
2017-05-25T20:20:30.709Z,18.50
2017-05-25T20:22:58.079Z,19.00
2017-05-25T20:25:25.002Z,19.40
2017-05-25T20:27:51.912Z,19.20
2017-05-25T20:30:19.298Z,19.20
2017-05-25T20:32:46.197Z,19.40
2017-05-25T20:35:13.152Z,19.30
2017-05-25T20:37:40.436Z,18.80
2017-05-25T20:40:07.379Z,18.50
2017-05-25T20:42:34.300Z,18.30
2017-05-25T20:45:01.664Z,18.40
2017-05-25T20:47:28.605Z,19.00
2017-05-25T20:49:55.508Z,19.00
2017-05-25T20:52:22.826Z,19.20
2017-05-25T20:54:49.761Z,19.10
2017-05-25T20:57:16.675Z,18.90
2017-05-25T20:59:43.946Z,18.40
2017-05-25T21:02:10.889Z,18.10
2017-05-25T21:04:37.830Z,18.40
2017-05-25T21:07:05.086Z,18.60
2017-05-25T21:09:31.992Z,18.50
2017-05-25T21:11:58.968Z,18.10
2017-05-25T21:14:26.322Z,17.80
2017-05-25T21:16:53.236Z,17.80
2017-05-25T21:19:20.222Z,17.70
2017-05-25T21:21:47.544Z,17.80
2017-05-25T21:24:14.434Z,18.00
2017-05-25T21:26:41.332Z,18.20
2017-05-25T21:29:08.689Z,18.10
2017-05-25T21:31:35.613Z,17.90
2017-05-25T21:34:02.508Z,17.90
2017-05-25T21:36:29.837Z,17.60
2017-05-25T21:38:56.761Z,17.60
2017-05-25T21:41:23.684Z,17.90
2017-05-25T21:43:50.969Z,17.60
2017-05-25T21:46:17.876Z,17.70
2017-05-25T21:48:44.850Z,17.50
2017-05-25T21:51:12.239Z,16.90
2017-05-25T21:53:39.161Z,17.40
2017-05-25T21:56:06.075Z,17.30
2017-05-25T21:58:33.369Z,17.00
2017-05-25T22:01:00.268Z,17.10
2017-05-25T22:03:27.196Z,17.30
2017-05-25T22:05:54.512Z,17.50
2017-05-25T22:08:21.393Z,17.60
2017-05-25T22:10:48.306Z,17.20
2017-05-25T22:13:16.282Z,17.00
2017-05-25T22:15:43.192Z,16.90
2017-05-25T22:18:10.115Z,17.10
2017-05-25T22:20:37.416Z,17.20
2017-05-25T22:23:04.312Z,16.70
2017-05-25T22:25:31.240Z,16.90
2017-05-25T22:27:58.536Z,17.00
2017-05-25T22:30:25.449Z,17.10
2017-05-25T22:32:52.391Z,17.10
2017-05-25T22:35:19.700Z,17.10
2017-05-25T22:37:46.596Z,16.90
2017-05-25T22:40:13.509Z,17.10
2017-05-25T22:42:40.770Z,17.10
2017-05-25T22:45:07.758Z,16.80
2017-05-25T22:47:34.703Z,16.40
2017-05-25T22:50:01.949Z,16.10
2017-05-25T22:52:28.854Z,16.60
2017-05-25T22:54:55.774Z,16.70
2017-05-25T22:57:23.040Z,16.10
2017-05-25T22:59:49.937Z,16.20
2017-05-25T23:02:16.985Z,16.40
2017-05-25T23:04:44.380Z,16.30
2017-05-25T23:07:11.419Z,16.30
2017-05-25T23:09:38.344Z,16.10
2017-05-25T23:12:05.595Z,16.20
2017-05-25T23:14:32.513Z,16.20
2017-05-25T23:16:59.400Z,16.00
2017-05-25T23:19:26.772Z,16.10
2017-05-25T23:21:53.706Z,16.10
2017-05-25T23:24:20.628Z,16.00
2017-05-25T23:26:48.016Z,16.00
2017-05-25T23:29:14.948Z,15.60
2017-05-25T23:31:41.852Z,15.60
2017-05-25T23:34:09.149Z,15.70
2017-05-25T23:36:36.049Z,15.70
2017-05-25T23:39:02.984Z,15.70
2017-05-25T23:41:30.272Z,15.40
2017-05-25T23:43:57.157Z,15.20
2017-05-25T23:46:24.097Z,15.40
2017-05-25T23:48:51.415Z,15.20
2017-05-25T23:51:18.371Z,15.20
2017-05-25T23:53:45.289Z,14.80
2017-05-25T23:56:12.583Z,14.80
2017-05-25T23:58:39.501Z,15.00
